Time;durP1;ratioP1;P1;durP2;ratioP2;P2;SDS_P1;SDS_P2;PMS_P1;PMS_P2;Temp;Humidity;BMP_temperature;BMP_pressure;BME280_temperature;BME280_humidity;BME280_pressure;Samples;Min_cycle;Max_cycle;Signal;HPM_P1;HPM_P2
2021/12/01 00:01:06;;;;;;;12.13;3.40;;;5.40;99.90;;;;;;5050876;28;20175;-80
2021/12/01 00:03:32;;;;;;;14.03;3.50;;;5.40;99.90;;;;;;5051776;28;20232;-81
2021/12/01 00:05:58;;;;;;;13.60;3.50;;;5.50;99.90;;;;;;5050274;28;20183;-80
2021/12/01 00:08:24;;;;;;;16.47;4.00;;;5.60;99.90;;;;;;5058144;28;20210;-81
2021/12/01 00:10:50;;;;;;;10.87;2.97;;;5.60;99.90;;;;;;5049464;28;20171;-80
2021/12/01 00:13:19;;;;;;;14.10;3.73;;;5.60;99.90;;;;;;5068327;28;20170;-80
2021/12/01 00:15:46;;;;;;;14.73;3.83;;;5.70;99.90;;;;;;5050153;28;20176;-80
2021/12/01 00:18:12;;;;;;;13.63;3.90;;;5.70;99.90;;;;;;5052165;28;20178;-82
2021/12/01 00:20:39;;;;;;;12.70;3.63;;;5.80;99.90;;;;;;5042120;28;20692;-80
2021/12/01 00:23:05;;;;;;;16.43;4.63;;;5.80;99.90;;;;;;5057384;28;20599;-80
2021/12/01 00:25:35;;;;;;;14.40;4.13;;;5.80;99.90;;;;;;5059608;28;20169;-81
2021/12/01 00:28:01;;;;;;;12.77;3.93;;;5.90;99.90;;;;;;5060972;28;20206;-80
2021/12/01 00:30:31;;;;;;;16.77;4.13;;;5.70;99.90;;;;;;5042747;28;20201;-80
2021/12/01 00:32:57;;;;;;;18.33;4.40;;;5.50;99.90;;;;;;5044692;28;20209;-80
2021/12/01 00:35:23;;;;;;;12.20;3.90;;;5.50;99.90;;;;;;5047147;28;20175;-80
2021/12/01 00:37:50;;;;;;;10.00;3.37;;;5.60;99.90;;;;;;5045570;28;20273;-79
2021/12/01 00:40:17;;;;;;;10.03;3.70;;;5.50;99.90;;;;;;5044189;28;20192;-80
2021/12/01 00:42:43;;;;;;;17.57;4.33;;;5.40;99.90;;;;;;5053119;28;20178;-80
2021/12/01 00:45:19;;;;;;;14.17;4.47;;;5.40;99.90;;;;;;5044677;28;20197;-80
2021/12/01 00:47:50;;;;;;;10.50;4.30;;;5.30;99.90;;;;;;5053355;28;20294;-81
2021/12/01 00:50:26;;;;;;;17.37;5.20;;;5.40;99.90;;;;;;5057960;28;20205;-80
2021/12/01 00:52:54;;;;;;;11.63;5.00;;;5.30;99.90;;;;;;5066789;28;20177;-79
2021/12/01 00:55:20;;;;;;;14.60;4.77;;;5.20;99.90;;;;;;5048462;28;20169;-80
2021/12/01 00:57:46;;;;;;;14.07;5.50;;;5.10;99.90;;;;;;5063625;28;20190;-79
2021/12/01 01:00:13;;;;;;;16.83;5.47;;;4.90;99.90;;;;;;5063421;28;20178;-80
2021/12/01 01:02:40;;;;;;;16.57;6.13;;;4.90;99.90;;;;;;5046938;28;20186;-79
2021/12/01 01:05:07;;;;;;;15.33;5.13;;;4.90;99.90;;;;;;5054094;28;20178;-80
2021/12/01 01:07:34;;;;;;;18.47;5.40;;;5.00;99.90;;;;;;5046919;28;20207;-80
2021/12/01 01:10:15;;;;;;;16.10;4.43;;;5.00;99.90;;;;;;5058264;28;20223;-80
2021/12/01 01:18:11;;;;;;;15.70;4.83;;;4.90;99.90;;;;;;5082940;28;20265;-80
2021/12/01 01:20:36;;;;;;;16.80;4.90;;;4.80;99.90;;;;;;5044443;28;20174;-80
2021/12/01 01:23:03;;;;;;;21.83;5.27;;;4.80;99.90;;;;;;5057616;28;20169;-80
2021/12/01 01:25:31;;;;;;;15.93;4.90;;;4.80;99.90;;;;;;5047868;28;20178;-79
2021/12/01 01:27:57;;;;;;;16.17;5.00;;;4.70;99.90;;;;;;5048443;28;20225;-79
2021/12/01 01:30:23;;;;;;;16.57;4.80;;;4.70;99.90;;;;;;5063783;28;20225;-80
2021/12/01 01:32:52;;;;;;;14.03;5.10;;;4.60;99.90;;;;;;5050630;28;20166;-80
2021/12/01 01:35:18;;;;;;;13.00;4.77;;;4.70;99.90;;;;;;5056581;28;20158;-79
2021/12/01 01:37:45;;;;;;;12.20;5.30;;;4.70;99.90;;;;;;5049006;28;20205;-79
2021/12/01 01:40:28;;;;;;;16.73;5.23;;;4.60;99.90;;;;;;5049529;28;20177;-81
2021/12/01 01:43:23;;;;;;;;;;;;;;;;;;;;;
2021/12/01 01:45:52;;;;;;;16.67;4.87;;;4.70;99.90;;;;;;5067246;28;20181;-79
2021/12/01 01:48:22;;;;;;;13.60;5.30;;;4.60;99.90;;;;;;5056305;28;20201;-81
2021/12/01 01:50:48;;;;;;;14.73;5.73;;;4.70;99.90;;;;;;5064894;28;20193;-80
2021/12/01 01:53:21;;;;;;;12.53;5.23;;;4.80;99.90;;;;;;5043897;28;20169;-79
2021/12/01 01:55:49;;;;;;;16.77;5.27;;;4.70;99.90;;;;;;5042234;28;20178;-79
2021/12/01 01:58:16;;;;;;;14.43;4.90;;;4.60;99.90;;;;;;5047087;28;20162;-79
2021/12/01 02:00:53;;;;;;;16.53;5.63;;;4.70;99.90;;;;;;5039428;28;20181;-80
2021/12/01 02:03:22;;;;;;;11.93;5.30;;;4.80;99.90;;;;;;5058801;28;20165;-81
2021/12/01 02:05:52;;;;;;;15.80;6.20;;;4.80;99.90;;;;;;5042186;28;21498;-80
2021/12/01 02:08:20;;;;;;;14.00;5.90;;;4.90;99.90;;;;;;5060391;28;20197;-79
2021/12/01 02:10:50;;;;;;;15.13;5.40;;;4.90;99.90;;;;;;5043395;28;20169;-79
2021/12/01 02:13:18;;;;;;;12.57;5.33;;;4.80;99.90;;;;;;5045157;28;20247;-80
2021/12/01 02:15:45;;;;;;;14.80;5.63;;;4.80;99.90;;;;;;5057027;28;20190;-79
2021/12/01 02:18:11;;;;;;;14.63;5.57;;;4.90;99.90;;;;;;5060337;28;20187;-79
2021/12/01 02:20:38;;;;;;;13.43;5.40;;;4.80;99.90;;;;;;5044351;28;20193;-80
2021/12/01 02:23:04;;;;;;;15.97;5.70;;;4.80;99.90;;;;;;5043578;28;20213;-80
2021/12/01 02:25:33;;;;;;;12.13;5.20;;;4.80;99.90;;;;;;5052163;28;20182;-79
2021/12/01 02:28:09;;;;;;;14.77;5.87;;;4.70;99.90;;;;;;5059815;28;20258;-79
2021/12/01 02:30:43;;;;;;;12.20;5.80;;;4.60;99.90;;;;;;5059049;28;20273;-80
2021/12/01 02:33:12;;;;;;;14.30;6.17;;;4.60;99.90;;;;;;5044439;28;20174;-79
2021/12/01 02:35:38;;;;;;;14.57;6.23;;;4.60;99.90;;;;;;5040483;28;20173;-80
2021/12/01 02:38:06;;;;;;;12.80;6.47;;;4.60;99.90;;;;;;5037962;28;20194;-81
2021/12/01 02:40:33;;;;;;;9.13;5.43;;;4.60;99.90;;;;;;5059211;28;20216;-80
2021/12/01 02:42:59;;;;;;;13.20;6.27;;;4.60;99.90;;;;;;5039829;28;20245;-80
2021/12/01 02:45:26;;;;;;;13.83;6.07;;;4.60;99.90;;;;;;5057452;28;20214;-80
2021/12/01 02:47:52;;;;;;;15.83;6.57;;;4.70;99.90;;;;;;5051080;28;20209;-80
2021/12/01 02:50:18;;;;;;;11.30;6.90;;;4.80;99.90;;;;;;5039538;28;20221;-80
2021/12/01 02:52:44;;;;;;;14.10;6.77;;;4.80;99.90;;;;;;5037470;28;20186;-79
2021/12/01 02:55:11;;;;;;;14.27;6.87;;;4.70;99.90;;;;;;5040498;28;20231;-79
2021/12/01 02:57:47;;;;;;;11.13;6.13;;;4.70;99.90;;;;;;5058029;28;20197;-80
2021/12/01 03:00:15;;;;;;;18.07;7.27;;;4.70;99.90;;;;;;5041243;28;20201;-80
2021/12/01 03:02:42;;;;;;;11.33;5.97;;;4.70;99.90;;;;;;5046710;28;20233;-79
2021/12/01 03:05:09;;;;;;;8.57;5.10;;;4.60;99.90;;;;;;5045354;28;20199;-80
2021/12/01 03:07:36;;;;;;;13.83;5.13;;;4.60;99.90;;;;;;5056672;28;20217;-81
2021/12/01 03:10:03;;;;;;;9.83;5.23;;;4.60;99.90;;;;;;5042157;28;20197;-80
2021/12/01 03:12:31;;;;;;;11.73;5.00;;;4.60;99.90;;;;;;5036612;28;20181;-80
2021/12/01 03:14:57;;;;;;;9.77;4.90;;;4.60;99.90;;;;;;5037689;28;20184;-80
2021/12/01 03:17:29;;;;;;;9.10;4.57;;;4.60;99.90;;;;;;5039829;28;20206;-80
2021/12/01 03:19:56;;;;;;;8.40;4.70;;;4.60;99.90;;;;;;5033576;28;20186;-80
2021/12/01 03:22:31;;;;;;;8.00;5.07;;;4.70;99.90;;;;;;5047062;28;20180;-81
2021/12/01 03:25:03;;;;;;;8.03;5.17;;;4.70;99.90;;;;;;5045020;28;20267;-79
2021/12/01 03:27:29;;;;;;;7.07;4.20;;;4.90;99.90;;;;;;5043553;28;20202;-80
2021/12/01 03:29:55;;;;;;;10.20;4.20;;;5.00;99.90;;;;;;5029589;28;20208;-81
2021/12/01 03:32:21;;;;;;;7.47;4.47;;;5.00;99.90;;;;;;5050154;28;20169;-81
2021/12/01 03:34:55;;;;;;;6.93;4.30;;;4.90;99.90;;;;;;5059578;28;20170;-80
2021/12/01 03:37:26;;;;;;;7.40;3.80;;;4.80;99.90;;;;;;5069333;28;20257;-80
2021/12/01 03:39:52;;;;;;;7.30;3.70;;;4.90;99.90;;;;;;5065994;28;20204;-80
2021/12/01 03:42:18;;;;;;;6.53;3.90;;;4.80;99.90;;;;;;5069333;28;20200;-79
2021/12/01 03:44:47;;;;;;;8.93;4.63;;;4.70;99.90;;;;;;5045974;28;20187;-80
2021/12/01 03:47:13;;;;;;;6.67;3.97;;;4.80;99.90;;;;;;5043758;28;20186;-80
2021/12/01 03:49:39;;;;;;;7.73;3.73;;;4.80;99.90;;;;;;5051370;28;20214;-81
2021/12/01 03:52:05;;;;;;;6.87;4.47;;;4.80;99.90;;;;;;5047464;28;20180;-80
2021/12/01 03:54:34;;;;;;;5.87;3.40;;;4.80;99.90;;;;;;5057583;28;20261;-80
2021/12/01 03:57:03;;;;;;;6.60;3.43;;;4.80;99.90;;;;;;5042049;28;20190;-80
2021/12/01 03:59:29;;;;;;;7.23;4.10;;;4.80;99.90;;;;;;5040702;28;20195;-81
2021/12/01 04:01:55;;;;;;;5.87;3.60;;;4.80;99.90;;;;;;5048343;28;20178;-80
2021/12/01 04:04:23;;;;;;;5.33;3.80;;;4.90;99.90;;;;;;5060164;28;20185;-80
2021/12/01 04:06:52;;;;;;;5.87;3.23;;;4.90;99.90;;;;;;5043823;28;20220;-80
2021/12/01 04:09:18;;;;;;;4.83;3.07;;;5.00;99.90;;;;;;5056962;28;20193;-80
2021/12/01 04:11:44;;;;;;;6.43;3.00;;;4.90;99.90;;;;;;5043304;28;20243;-80
2021/12/01 04:14:11;;;;;;;3.93;2.90;;;5.00;99.90;;;;;;5063154;28;20185;-79
2021/12/01 04:16:37;;;;;;;3.20;2.80;;;5.00;99.90;;;;;;5052130;28;20189;-80
2021/12/01 04:19:12;;;;;;;3.20;2.70;;;5.00;99.90;;;;;;5061502;28;20198;-81
2021/12/01 04:21:41;;;;;;;4.83;3.00;;;5.10;99.90;;;;;;5044556;28;20614;-81
2021/12/01 04:24:07;;;;;;;4.57;3.00;;;5.10;99.90;;;;;;5043850;28;20204;-81
2021/12/01 04:26:34;;;;;;;4.03;3.00;;;5.10;99.90;;;;;;5052608;28;20205;-80
2021/12/01 04:29:03;;;;;;;3.53;2.83;;;5.10;99.90;;;;;;5054284;28;20201;-81
2021/12/01 04:31:31;;;;;;;3.50;3.20;;;5.20;99.90;;;;;;5059551;28;20184;-80
2021/12/01 04:33:58;;;;;;;3.60;2.80;;;5.20;99.90;;;;;;5072249;28;20166;-81
2021/12/01 04:36:31;;;;;;;6.17;3.23;;;5.10;99.90;;;;;;5071959;28;20189;-80
2021/12/01 04:38:58;;;;;;;4.57;2.97;;;5.20;99.90;;;;;;5054983;28;20170;-80
2021/12/01 04:41:28;;;;;;;3.00;2.80;;;5.20;99.90;;;;;;5055678;28;20212;-81
2021/12/01 04:43:54;;;;;;;3.70;2.40;;;5.20;99.90;;;;;;5055712;28;20625;-80
2021/12/01 04:46:20;;;;;;;3.20;2.90;;;5.10;99.90;;;;;;5049168;28;20274;-80
2021/12/01 04:48:48;;;;;;;3.40;3.07;;;5.20;99.90;;;;;;5049382;28;20212;-80
2021/12/01 04:51:17;;;;;;;4.37;3.13;;;5.40;99.90;;;;;;5033994;28;20183;-81
2021/12/01 04:53:43;;;;;;;4.40;3.07;;;5.40;99.90;;;;;;5055567;28;20171;-81
2021/12/01 04:56:11;;;;;;;3.00;2.70;;;5.40;99.90;;;;;;5063553;28;20197;-80
2021/12/01 04:58:37;;;;;;;3.17;2.73;;;5.40;99.90;;;;;;5063778;28;20174;-81
2021/12/01 05:01:03;;;;;;;4.07;3.17;;;5.50;99.90;;;;;;5064691;28;20181;-80
2021/12/01 05:03:30;;;;;;;4.63;3.53;;;5.40;99.90;;;;;;5049763;28;20209;-81
2021/12/01 05:05:57;;;;;;;3.50;3.20;;;5.40;99.90;;;;;;5047197;28;20174;-80
2021/12/01 05:08:23;;;;;;;4.30;3.90;;;5.40;99.90;;;;;;5065654;28;20665;-80
2021/12/01 05:10:50;;;;;;;3.50;3.20;;;5.40;99.90;;;;;;5048294;28;20205;-80
2021/12/01 05:13:22;;;;;;;3.80;3.33;;;5.50;99.90;;;;;;5046339;28;20648;-81
2021/12/01 05:15:48;;;;;;;4.33;3.93;;;5.50;99.90;;;;;;5062135;28;20177;-79
2021/12/01 05:18:14;;;;;;;4.37;3.70;;;5.50;99.90;;;;;;5067460;28;20254;-80
2021/12/01 05:20:44;;;;;;;4.33;3.93;;;5.60;99.90;;;;;;5043527;28;20182;-79
2021/12/01 05:23:12;;;;;;;6.00;3.90;;;5.50;99.90;;;;;;5042859;28;20186;-79
2021/12/01 05:25:38;;;;;;;5.93;4.03;;;5.50;99.90;;;;;;5046615;28;20242;-80
2021/12/01 05:28:04;;;;;;;5.50;4.07;;;5.60;99.90;;;;;;5051892;28;20200;-81
2021/12/01 05:30:30;;;;;;;4.70;3.93;;;5.70;99.90;;;;;;5070635;28;20217;-79
2021/12/01 05:33:03;;;;;;;3.90;3.53;;;5.80;99.90;;;;;;5068147;28;20870;-79
2021/12/01 05:35:32;;;;;;;5.33;3.57;;;5.70;99.90;;;;;;5070460;28;20174;-80
2021/12/01 05:38:15;;;;;;;4.07;3.57;;;5.70;99.90;;;;;;5064728;28;20203;-85
2021/12/01 05:40:56;;;;;;;3.73;3.43;;;5.80;99.90;;;;;;5073052;28;20278;-83
2021/12/01 05:43:22;;;;;;;4.20;3.80;;;5.70;99.90;;;;;;5052843;28;20238;-81
2021/12/01 05:45:48;;;;;;;4.73;4.00;;;5.80;99.90;;;;;;5048775;28;20446;-79
2021/12/01 05:48:15;;;;;;;4.17;3.80;;;5.90;99.90;;;;;;5050267;28;20190;-80
2021/12/01 05:50:42;;;;;;;4.57;3.27;;;6.00;99.90;;;;;;5060970;28;20222;-82
2021/12/01 05:53:09;;;;;;;4.63;4.23;;;6.00;99.90;;;;;;5055480;28;20175;-80
2021/12/01 05:55:37;;;;;;;4.40;4.00;;;6.10;99.90;;;;;;5068622;28;20269;-80
2021/12/01 05:58:04;;;;;;;4.50;3.77;;;6.20;99.90;;;;;;5069946;28;20212;-82
2021/12/01 06:00:30;;;;;;;5.00;4.10;;;6.20;99.90;;;;;;5051165;28;20183;-80
2021/12/01 06:02:56;;;;;;;4.57;4.17;;;6.30;99.90;;;;;;5070240;28;20180;-82
2021/12/01 06:05:22;;;;;;;5.27;4.73;;;6.40;99.90;;;;;;5073108;28;20168;-82
2021/12/01 06:07:48;;;;;;;5.67;5.17;;;6.60;99.90;;;;;;5054606;28;20216;-81
2021/12/01 06:10:15;;;;;;;6.93;5.77;;;6.60;99.90;;;;;;5070736;28;20264;-82
2021/12/01 06:12:46;;;;;;;6.63;5.90;;;6.80;99.90;;;;;;5056154;28;20176;-81
2021/12/01 06:15:17;;;;;;;7.70;6.80;;;6.90;99.90;;;;;;5062594;28;20192;-82
2021/12/01 06:17:43;;;;;;;7.83;6.60;;;7.10;99.90;;;;;;5069471;28;20188;-82
2021/12/01 06:20:11;;;;;;;7.80;7.00;;;7.30;99.90;;;;;;5054655;28;20261;-81
2021/12/01 06:22:38;;;;;;;9.30;8.07;;;7.50;99.90;;;;;;5052503;28;20192;-80
2021/12/01 06:25:04;;;;;;;8.13;7.33;;;7.60;99.90;;;;;;5059953;28;20220;-79
2021/12/01 06:27:30;;;;;;;8.33;7.53;;;7.70;99.90;;;;;;5057399;28;20212;-79
2021/12/01 06:29:56;;;;;;;11.07;7.53;;;7.80;99.90;;;;;;5054177;28;20205;-80
2021/12/01 06:32:22;;;;;;;8.43;7.57;;;7.80;99.90;;;;;;5069512;28;20237;-80
2021/12/01 06:34:50;;;;;;;7.73;6.93;;;8.00;99.90;;;;;;5053490;28;20161;-81
2021/12/01 06:37:22;;;;;;;7.50;6.67;;;8.00;99.90;;;;;;5052243;28;20211;-80
2021/12/01 06:39:51;;;;;;;7.17;6.47;;;8.00;99.90;;;;;;5049895;28;20178;-80
2021/12/01 06:42:17;;;;;;;6.97;6.23;;;8.10;99.90;;;;;;5063000;28;20169;-81
2021/12/01 06:44:43;;;;;;;6.73;6.13;;;8.10;99.90;;;;;;5067043;28;20177;-81
2021/12/01 06:47:09;;;;;;;6.17;5.57;;;8.10;99.90;;;;;;5067041;28;20204;-80
2021/12/01 06:49:38;;;;;;;5.70;5.13;;;8.10;99.90;;;;;;5068681;28;20205;-80
2021/12/01 06:52:04;;;;;;;5.40;4.90;;;8.10;99.90;;;;;;5050027;28;20177;-80
2021/12/01 06:54:33;;;;;;;6.83;5.80;;;8.20;99.90;;;;;;5060716;28;20174;-79
2021/12/01 06:56:59;;;;;;;5.37;4.87;;;8.20;99.90;;;;;;5049916;28;20189;-80
2021/12/01 06:59:25;;;;;;;7.23;5.40;;;8.20;99.90;;;;;;5059870;28;20204;-81
2021/12/01 07:01:56;;;;;;;5.60;5.10;;;8.20;99.90;;;;;;5070088;28;20165;-83
2021/12/01 07:04:22;;;;;;;5.03;4.63;;;8.20;99.90;;;;;;5064163;28;20165;-81
2021/12/01 07:06:48;;;;;;;4.90;4.43;;;8.20;99.90;;;;;;5054560;28;20232;-80
2021/12/01 07:09:18;;;;;;;5.33;4.77;;;8.20;99.90;;;;;;5063416;28;20669;-79
2021/12/01 07:11:46;;;;;;;5.27;4.87;;;8.10;99.90;;;;;;5050489;28;20184;-82
2021/12/01 07:14:12;;;;;;;4.20;3.83;;;8.10;99.90;;;;;;5053658;28;20177;-79
2021/12/01 07:16:38;;;;;;;5.03;4.60;;;8.10;99.90;;;;;;5060726;28;20267;-79
2021/12/01 07:19:06;;;;;;;4.53;4.23;;;8.20;99.90;;;;;;5064553;28;20193;-81
2021/12/01 07:21:32;;;;;;;3.90;3.60;;;8.20;99.90;;;;;;5055300;28;20257;-81
2021/12/01 07:24:01;;;;;;;4.10;3.80;;;8.20;99.90;;;;;;5066060;28;20184;-80
2021/12/01 07:26:27;;;;;;;4.40;4.00;;;8.20;99.90;;;;;;5065713;28;20202;-80
2021/12/01 07:28:53;;;;;;;4.37;3.97;;;8.10;99.90;;;;;;5063921;28;20216;-80
2021/12/01 07:31:19;;;;;;;4.97;4.57;;;8.20;99.90;;;;;;5055708;28;20223;-81
2021/12/01 07:33:46;;;;;;;4.80;4.40;;;8.10;99.90;;;;;;5069181;28;20173;-81
2021/12/01 07:36:13;;;;;;;4.60;4.30;;;8.10;99.90;;;;;;5056169;28;21474;-80
2021/12/01 07:38:39;;;;;;;5.17;4.77;;;8.10;99.90;;;;;;5066156;28;20216;-80
2021/12/01 07:41:05;;;;;;;4.80;4.40;;;8.00;99.90;;;;;;5047654;28;20169;-79
2021/12/01 07:43:35;;;;;;;5.30;4.90;;;8.10;99.90;;;;;;5052406;28;20233;-81
2021/12/01 07:46:05;;;;;;;5.93;5.43;;;8.00;99.90;;;;;;5056026;28;20195;-80
2021/12/01 07:48:32;;;;;;;5.80;5.37;;;8.00;99.90;;;;;;5069884;28;20188;-79
2021/12/01 07:50:58;;;;;;;5.70;5.20;;;8.00;99.90;;;;;;5063723;28;20215;-80
2021/12/01 07:53:24;;;;;;;5.87;5.37;;;8.00;99.90;;;;;;5064154;28;20182;-80
2021/12/01 07:55:50;;;;;;;5.03;4.50;;;8.00;99.90;;;;;;5048677;28;20176;-80
2021/12/01 07:58:16;;;;;;;5.10;4.63;;;8.00;99.90;;;;;;5056420;28;20185;-81
2021/12/01 08:00:48;;;;;;;4.40;4.10;;;8.00;99.90;;;;;;5048932;28;20223;-80
2021/12/01 08:03:14;;;;;;;4.90;4.50;;;8.00;99.90;;;;;;5085954;28;20186;-81
2021/12/01 08:05:41;;;;;;;4.90;4.40;;;7.90;99.90;;;;;;5071963;28;20185;-81
2021/12/01 08:08:10;;;;;;;5.93;5.00;;;7.90;99.90;;;;;;5070135;28;20231;-80
2021/12/01 08:11:41;;;;;;;;;;;;;;;;;;;;;
2021/12/01 08:24:54;;;;;;;3.23;3.03;;;7.90;99.90;;;;;;5029940;28;20224;-79
2021/12/01 08:27:30;;;;;;;4.13;3.83;;;7.80;99.90;;;;;;5016172;28;20195;-78
2021/12/01 08:29:57;;;;;;;4.37;3.97;;;7.70;99.90;;;;;;5020213;28;20207;-80
2021/12/01 08:32:25;;;;;;;4.60;4.30;;;7.70;99.90;;;;;;5020536;28;20236;-79
2021/12/01 08:35:14;;;;;;;;;;;;;;;;;;;;;
2021/12/01 08:37:55;;;;;;;4.00;3.70;;;7.70;99.90;;;;;;5025117;28;20296;-79
2021/12/01 08:40:31;;;;;;;4.00;3.70;;;7.70;99.90;;;;;;5011958;28;20175;-79
2021/12/01 08:43:06;;;;;;;4.10;3.80;;;7.70;99.90;;;;;;5015231;28;20178;-79
2021/12/01 08:45:38;;;;;;;3.80;3.50;;;7.70;99.90;;;;;;5021663;28;20609;-79
2021/12/01 08:48:34;;;;;;;3.57;3.27;;;7.70;99.90;;;;;;5028630;28;20292;-79
2021/12/01 08:51:06;;;;;;;3.77;3.47;;;7.70;99.90;;;;;;5007592;28;20177;-78
2021/12/01 08:53:37;;;;;;;4.23;3.93;;;7.80;99.90;;;;;;5029048;28;20192;-77
2021/12/01 08:56:15;;;;;;;4.27;3.87;;;7.90;99.90;;;;;;5031575;28;20224;-79
2021/12/01 08:58:43;;;;;;;4.50;4.10;;;7.90;99.90;;;;;;5015908;28;20165;-79
2021/12/01 09:01:22;;;;;;;4.60;4.10;;;7.90;99.90;;;;;;5032722;28;20163;-79
2021/12/01 09:03:49;;;;;;;4.37;3.97;;;8.00;99.90;;;;;;5022285;28;20245;-80
2021/12/01 09:06:26;;;;;;;;;;;;;;;;;;;;;
2021/12/01 09:08:57;;;;;;;3.90;3.60;;;7.90;99.90;;;;;;5042608;28;20668;-79
2021/12/01 09:11:24;;;;;;;3.70;3.43;;;8.00;99.90;;;;;;5019290;28;20180;-79
2021/12/01 09:13:52;;;;;;;4.00;3.70;;;8.00;99.90;;;;;;5020006;28;20177;-80
2021/12/01 09:16:21;;;;;;;3.93;3.63;;;8.00;99.90;;;;;;5015343;28;20194;-79
2021/12/01 09:18:47;;;;;;;4.13;3.83;;;7.90;99.90;;;;;;5015237;28;20179;-80
2021/12/01 09:21:13;;;;;;;3.90;3.60;;;7.80;99.90;;;;;;5011188;28;20272;-78
2021/12/01 09:23:44;;;;;;;3.87;3.43;;;7.80;99.90;;;;;;5028843;28;20176;-79
2021/12/01 09:26:13;;;;;;;4.23;3.83;;;7.80;99.90;;;;;;5011879;28;20203;-79
2021/12/01 09:28:39;;;;;;;4.57;4.10;;;7.80;99.90;;;;;;5032229;28;20174;-79
2021/12/01 09:31:05;;;;;;;3.93;3.63;;;7.80;99.90;;;;;;5017937;28;20184;-79
2021/12/01 09:33:32;;;;;;;5.47;4.50;;;7.70;99.90;;;;;;5018100;28;20178;-79
2021/12/01 09:35:58;;;;;;;4.10;3.80;;;7.70;99.90;;;;;;5022676;28;20178;-79
2021/12/01 09:38:26;;;;;;;4.57;4.17;;;7.70;99.90;;;;;;5017868;28;20194;-79
2021/12/01 09:40:54;;;;;;;3.57;3.20;;;7.80;99.90;;;;;;5036217;28;20230;-79
2021/12/01 09:43:26;;;;;;;2.83;2.63;;;7.80;99.90;;;;;;5016192;28;20213;-78
2021/12/01 09:45:56;;;;;;;3.20;2.90;;;7.80;99.90;;;;;;5019319;28;20202;-78
2021/12/01 09:48:23;;;;;;;3.00;2.70;;;7.80;99.90;;;;;;5029233;28;20185;-78
2021/12/01 09:50:49;;;;;;;2.80;2.60;;;7.80;99.90;;;;;;5014399;28;20209;-79
2021/12/01 09:53:16;;;;;;;2.50;2.27;;;7.90;99.90;;;;;;5017418;28;20185;-79
2021/12/01 09:55:43;;;;;;;2.20;2.00;;;8.00;99.90;;;;;;5016859;28;20205;-78
2021/12/01 09:58:12;;;;;;;3.67;2.30;;;8.10;99.90;;;;;;5019411;28;20178;-78
2021/12/01 10:00:41;;;;;;;2.60;2.40;;;8.20;99.90;;;;;;5015159;28;20186;-79
2021/12/01 10:03:09;;;;;;;2.13;1.93;;;8.10;99.90;;;;;;5034470;28;20269;-78
2021/12/01 10:06:04;;;;;;;1.80;1.70;;;8.20;99.90;;;;;;5033289;28;20233;-78
2021/12/01 10:08:42;;;;;;;2.27;2.07;;;8.20;99.90;;;;;;5009106;28;20178;-79
2021/12/01 10:11:17;;;;;;;2.53;2.33;;;8.10;99.90;;;;;;5017735;28;20182;-79
2021/12/01 10:14:09;;;;;;;2.10;2.00;;;8.10;99.90;;;;;;5016411;28;20212;-78
2021/12/01 10:16:52;;;;;;;4.37;2.30;;;8.00;99.90;;;;;;5015575;28;20206;-78
2021/12/01 10:19:21;;;;;;;2.13;1.93;;;8.10;99.90;;;;;;5024191;28;20178;-79
2021/12/01 10:21:49;;;;;;;1.90;1.80;;;8.10;99.90;;;;;;5033065;28;20187;-79
2021/12/01 10:24:25;;;;;;;2.90;1.90;;;8.20;99.90;;;;;;5034443;28;20616;-80
2021/12/01 10:26:54;;;;;;;2.30;2.10;;;8.20;99.90;;;;;;5030723;28;20209;-78
2021/12/01 10:29:27;;;;;;;3.83;2.10;;;8.20;99.90;;;;;;5033668;28;20205;-79
2021/12/01 10:31:56;;;;;;;1.63;1.53;;;8.30;99.90;;;;;;5026632;28;20179;-78
2021/12/01 10:34:31;;;;;;;1.90;1.80;;;8.30;99.90;;;;;;5013133;28;20198;-79
2021/12/01 10:37:15;;;;;;;2.63;2.10;;;8.20;99.90;;;;;;5012384;28;20190;-79
2021/12/01 10:39:45;;;;;;;2.70;2.00;;;8.30;99.90;;;;;;5034733;28;20249;-79
2021/12/01 10:42:17;;;;;;;3.17;1.80;;;8.20;99.90;;;;;;5013749;28;20190;-79
2021/12/01 10:44:56;;;;;;;2.10;1.80;;;8.30;99.90;;;;;;5015307;28;20190;-79
2021/12/01 10:47:23;;;;;;;1.30;1.23;;;8.50;99.90;;;;;;5030983;28;20197;-79
2021/12/01 10:49:59;;;;;;;1.93;1.70;;;8.50;99.90;;;;;;5017536;28;20284;-79
2021/12/01 10:52:34;;;;;;;2.97;1.80;;;8.40;99.90;;;;;;5015696;28;20220;-80
2021/12/01 10:55:12;;;;;;;1.60;1.50;;;8.50;99.90;;;;;;5007485;28;20181;-80
2021/12/01 10:57:47;;;;;;;2.13;1.50;;;8.50;99.90;;;;;;5014146;28;20198;-80
2021/12/01 11:00:39;;;;;;;1.77;1.67;;;8.40;99.90;;;;;;5012164;28;20185;-80
2021/12/01 11:03:12;;;;;;;4.43;1.73;;;8.40;99.90;;;;;;5047823;28;20183;-79
2021/12/01 11:05:42;;;;;;;3.53;1.93;;;8.40;99.90;;;;;;5006090;28;20175;-79
2021/12/01 11:08:11;;;;;;;2.63;1.73;;;8.30;99.90;;;;;;5009363;28;20208;-78
2021/12/01 11:10:41;;;;;;;1.83;1.60;;;8.30;99.90;;;;;;5014233;28;20194;-79
2021/12/01 11:13:18;;;;;;;1.80;1.57;;;8.30;99.90;;;;;;5012323;28;20174;-79
2021/12/01 11:15:54;;;;;;;2.43;1.97;;;8.20;99.90;;;;;;5028014;28;20174;-79
2021/12/01 11:18:23;;;;;;;4.00;1.63;;;8.20;99.90;;;;;;5009220;28;20242;-79
2021/12/01 11:20:58;;;;;;;2.10;1.60;;;8.20;99.90;;;;;;5040902;28;20187;-79
2021/12/01 11:23:33;;;;;;;2.93;1.70;;;8.10;99.90;;;;;;5025220;28;20182;-80
2021/12/01 11:26:11;;;;;;;2.00;1.83;;;8.20;99.90;;;;;;5028085;28;20173;-80
2021/12/01 11:28:47;;;;;;;3.87;1.53;;;8.20;99.90;;;;;;5025953;28;20277;-79
2021/12/01 11:31:42;;;;;;;2.47;1.80;;;8.20;99.90;;;;;;5033232;28;20190;-79
2021/12/01 11:34:11;;;;;;;1.70;1.60;;;8.20;99.90;;;;;;5008959;28;20273;-80
2021/12/01 11:36:44;;;;;;;2.20;1.60;;;8.20;99.90;;;;;;5013375;28;20204;-79
2021/12/01 11:39:22;;;;;;;1.60;1.50;;;8.20;99.90;;;;;;5016748;28;20204;-80
2021/12/01 11:41:54;;;;;;;1.50;1.40;;;8.20;99.90;;;;;;5029895;28;20188;-80
2021/12/01 11:44:21;;;;;;;1.70;1.30;;;8.30;99.90;;;;;;5025703;28;20190;-80
2021/12/01 11:46:50;;;;;;;1.10;1.10;;;8.30;99.90;;;;;;5013277;28;20299;-79
2021/12/01 11:49:18;;;;;;;1.50;1.40;;;8.40;99.90;;;;;;5032065;28;20206;-79
2021/12/01 11:51:55;;;;;;;1.37;1.27;;;8.50;99.90;;;;;;5016197;28;20300;-79
2021/12/01 11:54:23;;;;;;;1.53;1.10;;;8.60;99.90;;;;;;5012433;28;20627;-80
2021/12/01 11:56:56;;;;;;;0.97;0.97;;;8.50;99.90;;;;;;5014815;28;20190;-79
2021/12/01 11:59:23;;;;;;;1.30;1.20;;;8.40;99.90;;;;;;5013428;28;20241;-79
2021/12/01 12:02:08;;;;;;;1.20;1.10;;;8.30;99.90;;;;;;5034562;28;20233;-80
2021/12/01 12:04:44;;;;;;;1.23;1.13;;;8.20;99.90;;;;;;5024933;28;20177;-79
2021/12/01 12:07:32;;;;;;;1.60;1.50;;;8.20;99.90;;;;;;5010697;28;20201;-80
2021/12/01 12:10:13;;;;;;;2.77;2.03;;;8.10;99.90;;;;;;5031866;28;20698;-80
2021/12/01 12:13:00;;;;;;;2.37;2.17;;;8.00;99.90;;;;;;5022024;28;20170;-80
2021/12/01 12:15:46;;;;;;;2.83;2.17;;;7.90;99.90;;;;;;5021934;28;20178;-80
2021/12/01 12:18:49;;;;;;;1.90;1.80;;;7.90;99.90;;;;;;5020084;28;20236;-79
2021/12/01 12:21:22;;;;;;;2.03;1.80;;;7.90;99.90;;;;;;5019269;28;20243;-79
2021/12/01 12:23:49;;;;;;;1.97;1.70;;;7.90;99.90;;;;;;5022226;28;20185;-80
2021/12/01 12:26:35;;;;;;;2.17;1.90;;;7.90;99.90;;;;;;5023969;28;20186;-78
2021/12/01 12:29:16;;;;;;;2.20;1.73;;;8.10;99.90;;;;;;5035819;28;20208;-79
2021/12/01 12:31:43;;;;;;;4.73;1.57;;;8.20;99.90;;;;;;5039543;28;20273;-79
2021/12/01 12:34:21;;;;;;;2.13;1.10;;;8.30;99.90;;;;;;5018629;28;20166;-78
2021/12/01 12:36:55;;;;;;;2.07;1.10;;;8.30;99.90;;;;;;5021443;28;20690;-79
2021/12/01 12:39:28;;;;;;;1.17;1.07;;;8.30;99.90;;;;;;5035397;28;20174;-79
2021/12/01 12:41:54;;;;;;;0.90;0.90;;;8.50;99.90;;;;;;5035000;28;20186;-78
2021/12/01 12:44:35;;;;;;;1.43;0.90;;;8.70;99.90;;;;;;5027577;28;20190;-78
2021/12/01 12:47:07;;;;;;;2.23;0.97;;;8.70;99.90;;;;;;5022624;28;20196;-79
2021/12/01 12:49:51;;;;;;;1.10;1.00;;;8.70;99.90;;;;;;5016133;28;20260;-79
2021/12/01 12:52:25;;;;;;;1.33;1.00;;;8.70;99.90;;;;;;5034638;28;20222;-80
2021/12/01 12:54:55;;;;;;;1.67;1.10;;;8.70;99.90;;;;;;5018213;28;20181;-79
2021/12/01 12:57:23;;;;;;;3.37;1.03;;;8.80;99.90;;;;;;5031749;28;20191;-78
2021/12/01 12:59:49;;;;;;;1.90;1.20;;;8.90;99.90;;;;;;5015450;28;20183;-78
2021/12/01 13:02:15;;;;;;;1.10;0.80;;;8.90;99.90;;;;;;5013778;28;20264;-79
2021/12/01 13:04:47;;;;;;;0.97;0.77;;;9.00;99.90;;;;;;5040567;28;20182;-79
2021/12/01 13:07:28;;;;;;;1.40;0.90;;;9.10;99.90;;;;;;5036101;28;20198;-78
2021/12/01 13:10:20;;;;;;;1.20;0.70;;;9.10;99.90;;;;;;5017714;28;20203;-78
2021/12/01 13:13:18;;;;;;;1.80;0.80;;;9.10;99.90;;;;;;5013471;28;20588;-78
2021/12/01 13:15:51;;;;;;;1.70;1.20;;;9.10;99.90;;;;;;5016178;28;20187;-78
2021/12/01 13:18:24;;;;;;;2.77;1.20;;;9.00;99.90;;;;;;5013510;28;20646;-78
2021/12/01 13:20:56;;;;;;;3.43;1.30;;;9.00;99.90;;;;;;5014131;28;20170;-79
2021/12/01 13:23:25;;;;;;;0.83;0.70;;;9.00;99.90;;;;;;5013747;28;20190;-78
2021/12/01 13:26:04;;;;;;;2.43;0.80;;;9.00;99.90;;;;;;5018889;28;20182;-79
2021/12/01 13:28:50;;;;;;;1.47;1.00;;;9.00;99.90;;;;;;5015985;28;20183;-78
2021/12/01 13:31:22;;;;;;;2.77;1.00;;;9.00;99.90;;;;;;5027764;28;20629;-77
2021/12/01 13:34:10;;;;;;;2.53;0.90;;;9.00;99.90;;;;;;5030457;28;20193;-78